Pagrindinis puslapis
METAR-TAF:

METAR-TAF

Oro uostai :

Alor Setaras, Malaizija

platuma: 06-11-40N, ilguma: 100-24-03E, Aukštis: 5 m

Dabartinis oras

Ataskaita buvo paskelbta 1 valandą ir 11 minutes, ne 19:00 UTC
Ramus vėjas
Temperatūra 25°C
Drėgmė 100%
Slėgis 1009 hPa
Matomumas: 3500 m
Mažai debesys ne aukštis 2800 ft
Išsisklaidę debesys ne aukštis 14000 ft
Su prošvaistėmis ne aukštis 27000 ft
migla

METAR: WMKA 201900Z 00000KT 3500 HZ FEW028 SCT140 BKN270 25/25 Q1009

Laikas: 04:11 (20:11 UTC)

Prognozė

Ataskaita buvo paskelbta 3 valandos ir 11 minutes, ne 17:00 UTC
Prognozė galioja nuo 20 metu 18 UTC su 21 metu 18 UTC
Vėjas 3 kt nuo kintamojo kryptimis
Matomumas: 4000 m
Mažai debesys ne aukštis 2800 ft
migla
Tapsmas
nuo 21 metu 02 UTC su 21 metu 04 UTC
Vėjas 8 kt iš Vakarų/Pietvakarių
Matomumas: 5000 m
Mažai debesys ne aukštis 2000 ft

TAF: WMKA 201700Z 2018/2118 VRB03KT 4000 HZ FEW028 BECMG 2102/2104 25008KT 5000 FEW020

Orai ataskaitas ir orų prognozės (METAR, TAF).

turimą stotys yra geltonos ir raudonos taškus žemėlapyje.

Perkelti pele per norėdami pamatyti stoties vardą.

Tada spustelėkite, norėdami matyti oro stebėjimo ir prognozės.

Norėdami pakeisti žemėlapį: spustelėkite ant žalios mygtukų su juodo kryžiaus žemyn,; žalią mygtuką su brūkšneliu, jei norite nutolinti; arba žalių rodyklių gretimoms žemėlapius.


METAR-TAF: